Terminal Aerodrome Forecast
Issued by NWS

Home | Current Version | Previous Version | Text Only | Print | Product List | Glossary On
Versions: 1 2 3 4 5 6 7 8 9 10 11 12 13 14 15 16 17 18
000
FTUS43 KGRR 311100
TAFMKG
TAF
KMKG 311140Z 3112/0112 33014G25KT 6SM -SHRA BR OVC015
     FM311600 36020G32KT 2SM -SHRASN BR OVC010
     FM311800 01020G30KT P6SM VCSH BKN035
     FM010200 01014G22KT P6SM SCT035=

USA.gov is the U.S. government's official web portal to all federal, state and local government web resources and services.